Time;durP1;ratioP1;P1;durP2;ratioP2;P2;SDS_P1;SDS_P2;PMS_P1;PMS_P2;Temp;Humidity;BMP_temperature;BMP_pressure;BME280_temperature;BME280_humidity;BME280_pressure;Samples;Min_cycle;Max_cycle;Signal;HPM_P1;HPM_P2
2023/01/25 00:02:08;;;;;;;14.55;9.30;;;3.00;99.90;;;;;;5060734;28;20510;-65
2023/01/25 00:04:35;;;;;;;16.33;10.82;;;3.10;99.90;;;;;;5066516;28;20506;-63
2023/01/25 00:07:02;;;;;;;12.68;9.13;;;3.10;99.90;;;;;;5067478;28;20138;-63
2023/01/25 00:09:29;;;;;;;13.45;9.13;;;3.00;99.90;;;;;;5070183;28;20079;-64
2023/01/25 00:11:57;;;;;;;15.52;8.90;;;3.10;99.90;;;;;;5059679;28;20037;-63
2023/01/25 00:14:24;;;;;;;16.92;9.93;;;3.10;99.90;;;;;;5067364;28;20151;-64
2023/01/25 00:16:51;;;;;;;15.15;10.05;;;3.10;99.90;;;;;;5068653;28;20553;-63
2023/01/25 00:19:18;;;;;;;15.25;8.98;;;3.10;99.90;;;;;;5064422;28;20052;-66
2023/01/25 00:21:45;;;;;;;12.77;9.07;;;3.10;99.90;;;;;;5068674;28;20048;-63
2023/01/25 00:24:13;;;;;;;12.57;7.50;;;3.10;99.90;;;;;;5066960;28;20047;-64
2023/01/25 00:26:44;;;;;;;17.63;9.30;;;3.10;99.90;;;;;;5069311;28;20110;-64
2023/01/25 00:29:13;;;;;;;11.10;8.75;;;3.10;99.90;;;;;;5063045;28;20480;-65
2023/01/25 00:31:57;;;;;;;10.35;8.10;;;3.10;99.90;;;;;;5070265;28;20051;-64
2023/01/25 00:34:24;;;;;;;13.55;8.00;;;3.10;99.90;;;;;;5067108;28;20048;-64
2023/01/25 00:36:56;;;;;;;17.48;9.77;;;3.10;99.90;;;;;;5069580;28;20052;-65
2023/01/25 00:39:25;;;;;;;15.93;8.93;;;3.10;99.90;;;;;;5069563;28;20056;-65
2023/01/25 00:41:53;;;;;;;13.40;8.93;;;3.10;99.90;;;;;;5065472;28;20054;-66
2023/01/25 00:44:20;;;;;;;16.13;9.00;;;3.10;99.90;;;;;;5063229;28;20051;-67
2023/01/25 00:46:48;;;;;;;15.63;9.45;;;3.10;99.90;;;;;;5066909;28;20045;-65
2023/01/25 00:49:23;;;;;;;14.40;7.85;;;3.10;99.90;;;;;;5064168;28;20053;-64
2023/01/25 00:51:51;;;;;;;11.50;6.68;;;3.20;99.90;;;;;;5063672;28;20048;-65
2023/01/25 00:54:19;;;;;;;11.13;7.63;;;3.10;99.90;;;;;;5067855;28;20134;-64
2023/01/25 00:56:46;;;;;;;11.30;8.18;;;3.20;99.90;;;;;;5062673;28;20052;-64
2023/01/25 00:59:13;;;;;;;12.32;7.25;;;3.20;99.90;;;;;;5069093;28;20121;-64
2023/01/25 01:01:41;;;;;;;16.23;7.03;;;3.20;99.90;;;;;;5063964;28;20456;-63
2023/01/25 01:04:08;;;;;;;12.93;7.57;;;3.20;99.90;;;;;;5066899;28;20070;-65
2023/01/25 01:06:40;;;;;;;12.35;7.97;;;3.20;99.90;;;;;;5066867;28;20074;-65
2023/01/25 01:09:12;;;;;;;10.95;8.10;;;3.20;99.90;;;;;;5069027;28;20063;-63
2023/01/25 01:11:39;;;;;;;15.35;7.57;;;3.20;99.90;;;;;;5066107;28;20128;-64
2023/01/25 01:14:06;;;;;;;14.00;8.23;;;3.20;99.90;;;;;;5066982;28;20048;-68
2023/01/25 01:16:33;;;;;;;12.40;7.85;;;3.20;99.90;;;;;;5063825;28;20084;-63
2023/01/25 01:19:01;;;;;;;12.20;7.68;;;3.20;99.90;;;;;;5067455;28;20044;-65
2023/01/25 01:21:28;;;;;;;14.40;7.50;;;3.20;99.90;;;;;;5069831;28;20052;-64
2023/01/25 01:23:56;;;;;;;19.45;8.18;;;3.20;99.90;;;;;;5062462;28;20075;-64
2023/01/25 01:26:23;;;;;;;13.40;8.30;;;3.30;99.90;;;;;;5068928;28;20371;-67
2023/01/25 01:28:50;;;;;;;9.52;7.05;;;3.30;99.90;;;;;;5059532;28;20072;-64
2023/01/25 01:31:20;;;;;;;9.50;6.15;;;3.30;99.90;;;;;;5067260;28;20120;-63
2023/01/25 01:33:57;;;;;;;9.93;6.43;;;3.30;99.90;;;;;;5061546;28;20150;-64
2023/01/25 01:36:26;;;;;;;10.00;5.55;;;3.30;99.90;;;;;;5060800;28;20063;-64
2023/01/25 01:38:54;;;;;;;7.50;6.50;;;3.40;99.90;;;;;;5068787;28;20591;-64
2023/01/25 01:41:21;;;;;;;12.40;5.97;;;3.40;99.90;;;;;;5069070;28;20150;-66
2023/01/25 01:43:48;;;;;;;11.65;7.13;;;3.40;99.90;;;;;;5066216;28;20052;-66
2023/01/25 01:46:36;;;;;;;8.88;6.93;;;3.40;99.90;;;;;;5067253;28;20049;-64
2023/01/25 01:49:10;;;;;;;7.50;6.50;;;3.40;99.90;;;;;;5064087;28;20067;-63
2023/01/25 01:51:59;;;;;;;10.02;6.38;;;3.50;99.90;;;;;;5060655;28;20432;-63
2023/01/25 01:54:46;;;;;;;10.35;7.43;;;3.50;99.90;;;;;;5061076;28;20824;-64
2023/01/25 01:57:18;;;;;;;9.95;6.25;;;3.50;99.90;;;;;;5082568;28;20136;-68
2023/01/25 01:59:55;;;;;;;9.13;6.15;;;3.50;99.90;;;;;;5066498;28;20040;-63
2023/01/25 02:02:24;;;;;;;9.00;6.05;;;3.50;99.90;;;;;;5062524;28;20044;-66
2023/01/25 02:04:55;;;;;;;8.07;5.97;;;3.50;99.90;;;;;;5059198;28;20080;-64
2023/01/25 02:07:30;;;;;;;9.23;6.85;;;3.50;99.90;;;;;;5065084;28;20127;-66
2023/01/25 02:10:03;;;;;;;10.15;6.80;;;3.50;99.90;;;;;;5062059;28;20107;-64
2023/01/25 02:12:30;;;;;;;9.75;5.55;;;3.50;99.90;;;;;;5064049;28;20052;-65
2023/01/25 02:14:58;;;;;;;5.43;4.82;;;3.60;99.90;;;;;;5062208;28;20079;-64
2023/01/25 02:17:28;;;;;;;10.68;6.70;;;3.60;99.90;;;;;;5065581;28;20053;-64
2023/01/25 02:20:08;;;;;;;7.20;4.85;;;3.60;99.90;;;;;;5062353;28;20052;-64
2023/01/25 02:23:02;;;;;;;8.65;6.03;;;3.60;99.90;;;;;;5062324;28;20041;-62
2023/01/25 02:25:29;;;;;;;9.27;5.65;;;3.60;99.90;;;;;;5062969;28;20060;-65
2023/01/25 02:28:19;;;;;;;6.80;5.13;;;3.60;99.90;;;;;;5064607;28;20090;-63
2023/01/25 02:30:47;;;;;;;7.57;4.88;;;3.70;99.90;;;;;;5057041;28;20056;-64
2023/01/25 02:33:15;;;;;;;6.32;4.50;;;3.70;99.90;;;;;;5066391;28;20139;-63
2023/01/25 02:35:52;;;;;;;5.30;4.47;;;3.70;99.90;;;;;;5055341;28;20605;-66
2023/01/25 02:38:20;;;;;;;9.50;5.20;;;3.70;99.90;;;;;;5064367;28;20044;-67
2023/01/25 02:40:56;;;;;;;8.77;4.70;;;3.70;99.90;;;;;;5063921;28;20060;-65
2023/01/25 02:43:28;;;;;;;8.20;5.22;;;3.70;99.90;;;;;;5065714;28;21180;-64
2023/01/25 02:46:09;;;;;;;6.55;4.85;;;3.70;99.90;;;;;;5061314;28;20044;-64
2023/01/25 02:48:36;;;;;;;8.52;5.55;;;3.70;99.90;;;;;;5065135;28;20160;-63
2023/01/25 02:51:08;;;;;;;7.05;4.68;;;3.70;99.90;;;;;;5064560;28;20056;-63
2023/01/25 02:53:38;;;;;;;5.22;4.72;;;3.70;99.90;;;;;;5060381;28;20055;-66
2023/01/25 02:56:06;;;;;;;6.20;4.32;;;3.80;99.90;;;;;;5073138;28;20048;-64
2023/01/25 02:58:33;;;;;;;6.28;4.18;;;3.70;99.90;;;;;;5061730;28;20044;-64
2023/01/25 03:01:00;;;;;;;7.50;3.95;;;3.80;99.90;;;;;;5064671;28;20083;-63
2023/01/25 03:03:27;;;;;;;3.83;3.42;;;3.80;99.90;;;;;;5049231;28;20051;-65
2023/01/25 03:05:54;;;;;;;6.35;3.50;;;3.80;99.90;;;;;;5061664;28;21078;-65
2023/01/25 03:08:20;;;;;;;5.13;3.60;;;3.90;99.90;;;;;;5063954;28;20060;-64
2023/01/25 03:10:50;;;;;;;4.63;3.08;;;3.90;99.90;;;;;;5058494;28;20057;-68
2023/01/25 03:13:17;;;;;;;4.15;3.13;;;3.90;99.90;;;;;;5063208;28;20132;-65
2023/01/25 03:15:44;;;;;;;4.20;3.08;;;3.90;99.90;;;;;;5064805;28;20052;-66
2023/01/25 03:18:11;;;;;;;3.88;2.20;;;3.90;99.90;;;;;;5061344;28;20055;-67
2023/01/25 03:20:38;;;;;;;3.50;2.40;;;3.90;99.90;;;;;;5065700;28;20501;-65
2023/01/25 03:23:05;;;;;;;3.92;2.42;;;3.90;99.90;;;;;;5058869;28;20041;-69
2023/01/25 03:25:33;;;;;;;3.00;2.08;;;3.90;99.90;;;;;;5058869;28;20608;-66
2023/01/25 03:28:08;;;;;;;4.20;3.90;;;3.90;99.90;;;;;;5058700;28;20040;-65
2023/01/25 03:30:36;;;;;;;3.28;2.25;;;4.00;99.90;;;;;;5066002;28;20040;-63
2023/01/25 03:33:03;;;;;;;2.65;2.45;;;4.00;99.90;;;;;;5061748;28;20167;-64
2023/01/25 03:35:32;;;;;;;2.10;1.45;;;4.00;99.90;;;;;;5062865;28;20559;-63
2023/01/25 03:37:58;;;;;;;1.98;1.63;;;4.00;99.90;;;;;;5059190;28;20098;-62
2023/01/25 03:40:26;;;;;;;1.65;1.55;;;4.00;99.90;;;;;;5062235;28;20058;-64
2023/01/25 03:42:53;;;;;;;2.60;2.03;;;4.00;99.90;;;;;;5062947;28;20040;-64
2023/01/25 03:45:21;;;;;;;1.30;1.17;;;4.00;99.90;;;;;;5063593;28;20052;-68
2023/01/25 03:47:49;;;;;;;2.50;1.42;;;4.00;99.90;;;;;;5063056;28;20036;-64
2023/01/25 03:50:15;;;;;;;3.08;1.13;;;4.00;99.90;;;;;;5061208;28;20121;-63
2023/01/25 03:52:47;;;;;;;2.00;1.60;;;4.00;99.90;;;;;;5057923;28;20052;-63
2023/01/25 03:55:14;;;;;;;2.42;1.50;;;4.00;99.90;;;;;;5063657;28;20064;-65
2023/01/25 03:57:43;;;;;;;1.60;1.50;;;4.00;99.90;;;;;;5063870;28;20083;-63
2023/01/25 04:00:11;;;;;;;1.55;1.30;;;4.00;99.90;;;;;;5053253;28;20045;-64
2023/01/25 04:02:48;;;;;;;2.63;1.42;;;4.00;99.90;;;;;;5078100;28;20279;-63
2023/01/25 04:05:18;;;;;;;1.67;1.33;;;4.00;99.90;;;;;;5064309;28;20075;-62
2023/01/25 04:07:46;;;;;;;1.58;1.48;;;4.00;99.90;;;;;;5061928;28;20140;-64
2023/01/25 04:10:15;;;;;;;4.97;1.45;;;4.00;99.90;;;;;;5058098;28;20062;-65
2023/01/25 04:12:45;;;;;;;1.67;1.33;;;4.10;99.90;;;;;;5059280;28;20047;-65
2023/01/25 04:15:11;;;;;;;3.10;1.20;;;4.10;99.90;;;;;;5066248;28;20470;-63
2023/01/25 04:17:38;;;;;;;1.38;1.27;;;4.00;99.90;;;;;;5061918;28;20145;-65
2023/01/25 04:20:20;;;;;;;1.17;1.08;;;4.10;99.90;;;;;;5060525;28;20055;-66
2023/01/25 04:22:47;;;;;;;1.00;0.90;;;4.10;99.90;;;;;;5066501;28;20083;-64
2023/01/25 04:25:15;;;;;;;2.70;1.55;;;4.10;99.90;;;;;;5064754;28;20375;-64
2023/01/25 04:27:49;;;;;;;2.75;1.13;;;4.10;99.90;;;;;;5058670;28;20094;-63
2023/01/25 04:30:16;;;;;;;0.85;0.85;;;4.10;99.90;;;;;;5059592;28;20126;-66
2023/01/25 04:32:45;;;;;;;1.67;1.58;;;4.10;99.90;;;;;;5075714;28;20165;-63
2023/01/25 04:35:29;;;;;;;1.90;1.48;;;4.00;99.90;;;;;;5063351;28;20494;-64
2023/01/25 04:37:57;;;;;;;1.42;1.05;;;4.00;99.90;;;;;;5059700;28;20478;-65
2023/01/25 04:40:30;;;;;;;2.08;1.20;;;4.00;99.90;;;;;;5061265;28;20052;-64
2023/01/25 04:42:57;;;;;;;1.77;1.42;;;4.00;99.90;;;;;;5063323;28;20068;-64
2023/01/25 04:45:24;;;;;;;1.90;1.73;;;4.00;99.90;;;;;;5058757;28;20113;-65
2023/01/25 04:47:56;;;;;;;1.85;1.55;;;4.00;99.90;;;;;;5058330;28;20445;-65
2023/01/25 04:50:25;;;;;;;1.35;1.25;;;4.10;99.90;;;;;;5062541;28;20059;-64
2023/01/25 04:52:53;;;;;;;2.35;1.67;;;4.00;99.90;;;;;;5064571;28;20049;-67
2023/01/25 04:55:21;;;;;;;2.35;2.25;;;4.00;99.90;;;;;;5064812;28;20051;-66
2023/01/25 04:57:50;;;;;;;1.75;1.60;;;4.00;99.90;;;;;;5067039;28;20121;-64
2023/01/25 05:00:18;;;;;;;1.77;1.58;;;4.00;99.90;;;;;;5064018;28;20075;-65
2023/01/25 05:02:45;;;;;;;3.92;1.73;;;4.00;99.90;;;;;;5061824;28;20082;-65
2023/01/25 05:05:14;;;;;;;2.80;1.60;;;4.00;99.90;;;;;;5068217;28;20114;-69
2023/01/25 05:07:41;;;;;;;1.63;1.52;;;4.00;99.90;;;;;;5066136;28;20053;-64
2023/01/25 05:10:09;;;;;;;2.78;2.45;;;4.00;99.90;;;;;;5061733;28;20096;-65
2023/01/25 05:12:40;;;;;;;2.22;2.00;;;4.00;99.90;;;;;;5063784;28;20592;-66
2023/01/25 05:15:07;;;;;;;6.15;3.88;;;4.00;99.90;;;;;;5062794;28;20048;-64
2023/01/25 05:17:35;;;;;;;3.20;2.47;;;4.00;99.90;;;;;;5065496;28;20079;-67
2023/01/25 05:20:03;;;;;;;2.75;1.90;;;4.00;99.90;;;;;;5066481;28;20044;-69
2023/01/25 05:22:29;;;;;;;2.05;1.40;;;4.00;99.90;;;;;;5066882;28;20048;-63
2023/01/25 05:24:58;;;;;;;2.50;2.17;;;4.00;99.90;;;;;;5067648;28;20139;-63
2023/01/25 05:27:25;;;;;;;2.35;2.05;;;4.00;99.90;;;;;;5061227;28;20048;-66
2023/01/25 05:29:52;;;;;;;1.63;1.52;;;4.00;99.90;;;;;;5066821;28;20044;-63
2023/01/25 05:32:23;;;;;;;1.38;1.27;;;4.00;99.90;;;;;;5062488;28;20106;-63
2023/01/25 05:34:50;;;;;;;5.60;1.65;;;4.00;99.90;;;;;;5066941;28;20045;-64
2023/01/25 05:37:19;;;;;;;3.28;1.48;;;4.00;99.90;;;;;;5063281;28;20520;-63
2023/01/25 05:39:52;;;;;;;2.35;1.35;;;4.00;99.90;;;;;;5071010;28;20053;-63
2023/01/25 05:42:19;;;;;;;1.38;1.10;;;4.00;99.90;;;;;;5065235;28;20131;-64
2023/01/25 05:44:46;;;;;;;2.65;2.45;;;4.00;99.90;;;;;;5063837;28;20053;-63
2023/01/25 05:47:16;;;;;;;1.65;1.55;;;4.00;99.90;;;;;;5064942;28;20037;-63
2023/01/25 05:49:44;;;;;;;2.35;1.20;;;4.00;99.90;;;;;;5060413;28;20048;-62
2023/01/25 05:52:17;;;;;;;1.23;1.13;;;4.00;99.90;;;;;;5058810;28;20044;-63
2023/01/25 05:54:44;;;;;;;2.17;1.88;;;4.00;99.90;;;;;;5075655;28;20075;-63
2023/01/25 05:57:13;;;;;;;1.65;1.55;;;4.00;99.90;;;;;;5065945;28;20048;-64
2023/01/25 05:59:41;;;;;;;1.98;1.60;;;4.10;99.90;;;;;;5057793;28;20480;-68
2023/01/25 06:02:10;;;;;;;2.13;1.90;;;4.10;99.90;;;;;;5064278;28;20057;-65
2023/01/25 06:04:37;;;;;;;1.80;1.70;;;4.10;99.90;;;;;;5060714;28;20041;-63
2023/01/25 06:07:05;;;;;;;2.45;2.10;;;4.10;99.90;;;;;;5061269;28;20052;-63
2023/01/25 06:09:33;;;;;;;2.53;1.83;;;4.10;99.90;;;;;;5061689;28;20090;-66
2023/01/25 06:12:02;;;;;;;3.30;1.92;;;4.10;99.90;;;;;;5060528;28;20060;-62
2023/01/25 06:14:29;;;;;;;3.00;2.08;;;4.10;99.90;;;;;;5064978;28;20048;-63
2023/01/25 06:16:57;;;;;;;1.60;1.33;;;4.10;99.90;;;;;;5065392;28;20044;-68
2023/01/25 06:19:23;;;;;;;2.40;1.85;;;4.10;99.90;;;;;;5063070;28;20033;-67
2023/01/25 06:22:10;;;;;;;2.05;1.83;;;4.00;99.90;;;;;;5062691;28;20049;-68
2023/01/25 06:24:37;;;;;;;3.95;2.30;;;4.10;99.90;;;;;;5066831;28;20531;-65
2023/01/25 06:27:04;;;;;;;3.38;1.75;;;4.10;99.90;;;;;;5065411;28;20036;-63
2023/01/25 06:29:31;;;;;;;1.70;1.60;;;4.00;99.90;;;;;;5066047;28;20144;-68
2023/01/25 06:31:58;;;;;;;2.65;1.98;;;4.00;99.90;;;;;;5064777;28;20064;-65
2023/01/25 06:34:25;;;;;;;4.00;1.88;;;4.00;99.90;;;;;;5063500;28;20060;-67
2023/01/25 06:36:52;;;;;;;3.35;2.25;;;4.10;99.90;;;;;;5056500;28;20044;-63
2023/01/25 06:39:19;;;;;;;5.45;2.05;;;4.00;99.90;;;;;;5064813;28;20040;-62
2023/01/25 06:41:46;;;;;;;4.25;2.10;;;4.00;99.90;;;;;;5065550;28;20556;-63
2023/01/25 06:44:13;;;;;;;2.40;1.77;;;4.00;99.90;;;;;;5062872;28;20051;-70
2023/01/25 06:46:40;;;;;;;2.90;1.92;;;4.00;99.90;;;;;;5064192;28;20738;-63
2023/01/25 06:49:07;;;;;;;3.67;2.65;;;4.00;99.90;;;;;;5079409;28;20037;-69
2023/01/25 06:51:34;;;;;;;4.38;2.47;;;4.00;99.90;;;;;;5059231;28;20122;-67
2023/01/25 06:54:03;;;;;;;3.60;2.42;;;4.00;99.90;;;;;;5063769;28;20056;-64
2023/01/25 06:56:31;;;;;;;3.42;2.65;;;4.00;99.90;;;;;;5065592;28;20435;-64
2023/01/25 06:58:58;;;;;;;10.05;5.85;;;4.00;99.90;;;;;;5064672;28;20041;-68
2023/01/25 07:01:29;;;;;;;4.25;2.53;;;4.00;99.90;;;;;;5064946;28;20064;-64
2023/01/25 07:03:57;;;;;;;2.90;1.90;;;4.00;99.90;;;;;;5063050;28;20520;-64
2023/01/25 07:06:29;;;;;;;7.63;3.03;;;4.00;99.90;;;;;;5059442;28;20475;-64
2023/01/25 07:09:03;;;;;;;4.78;2.88;;;4.00;99.90;;;;;;5064831;28;20049;-65
2023/01/25 07:11:30;;;;;;;4.88;2.83;;;4.00;99.90;;;;;;5055169;28;20053;-65
2023/01/25 07:13:57;;;;;;;3.33;2.38;;;4.00;99.90;;;;;;5061934;28;20052;-63
2023/01/25 07:16:23;;;;;;;2.60;2.40;;;4.00;99.90;;;;;;5063007;28;20402;-66
2023/01/25 07:18:50;;;;;;;3.42;3.17;;;4.00;99.90;;;;;;5061016;28;20639;-68
2023/01/25 07:21:20;;;;;;;2.60;2.40;;;4.00;99.90;;;;;;5062113;28;20052;-63
2023/01/25 07:23:51;;;;;;;2.85;2.53;;;4.00;99.90;;;;;;5060306;28;20044;-64
2023/01/25 07:26:23;;;;;;;3.80;2.70;;;4.00;99.90;;;;;;5063277;28;20048;-63
2023/01/25 07:28:51;;;;;;;3.25;2.92;;;4.00;99.90;;;;;;5061508;28;20139;-66
2023/01/25 07:31:19;;;;;;;3.40;2.92;;;4.00;99.90;;;;;;5064340;28;20404;-64
2023/01/25 07:33:51;;;;;;;6.20;2.75;;;4.00;99.90;;;;;;5063728;28;20102;-64
2023/01/25 07:36:18;;;;;;;6.53;3.10;;;4.00;99.90;;;;;;5062969;28;20060;-68
2023/01/25 07:38:45;;;;;;;5.65;2.67;;;4.00;99.90;;;;;;5060704;28;20520;-64
2023/01/25 07:41:15;;;;;;;6.22;2.72;;;4.00;99.90;;;;;;5060485;28;20045;-64
2023/01/25 07:43:42;;;;;;;10.75;3.40;;;4.00;99.90;;;;;;5063171;28;20093;-64
2023/01/25 07:46:11;;;;;;;3.97;3.55;;;4.00;99.90;;;;;;5068405;28;20061;-64
2023/01/25 07:48:46;;;;;;;6.55;3.58;;;4.00;99.90;;;;;;5061444;28;20047;-64
2023/01/25 07:51:23;;;;;;;5.88;2.65;;;4.00;99.90;;;;;;5061404;28;20557;-64
2023/01/25 07:53:53;;;;;;;4.22;3.05;;;4.00;99.90;;;;;;5059824;28;20058;-64
2023/01/25 07:56:25;;;;;;;4.28;3.08;;;4.00;99.90;;;;;;5058021;28;20064;-65
2023/01/25 07:58:54;;;;;;;4.80;3.17;;;4.00;99.90;;;;;;5054715;28;20474;-65
2023/01/25 08:01:23;;;;;;;4.53;3.05;;;4.00;99.90;;;;;;4991063;28;20515;-69
2023/01/25 08:03:51;;;;;;;3.53;3.08;;;4.00;99.90;;;;;;5040766;28;20286;-66
2023/01/25 08:06:26;;;;;;;5.15;3.75;;;4.00;99.90;;;;;;5038768;28;20107;-65
2023/01/25 08:08:54;;;;;;;3.88;3.50;;;4.00;99.90;;;;;;5041059;28;20041;-63
2023/01/25 08:11:26;;;;;;;6.35;3.85;;;4.00;99.90;;;;;;5040160;28;20536;-63
2023/01/25 08:13:53;;;;;;;5.00;3.65;;;4.00;99.90;;;;;;5040252;28;20075;-64
2023/01/25 08:16:23;;;;;;;4.78;3.17;;;4.00;99.90;;;;;;5050699;28;20057;-64
2023/01/25 08:18:53;;;;;;;5.78;3.10;;;4.00;99.90;;;;;;5040962;28;20067;-65
2023/01/25 08:21:28;;;;;;;4.30;2.90;;;4.00;99.90;;;;;;5044057;28;20055;-64
2023/01/25 08:24:01;;;;;;;4.43;4.03;;;4.00;99.90;;;;;;5041996;28;20064;-64
2023/01/25 08:26:28;;;;;;;4.78;3.05;;;4.00;99.90;;;;;;5040442;28;21659;-64
2023/01/25 08:28:55;;;;;;;5.18;4.57;;;4.00;99.90;;;;;;5045588;28;20056;-65
2023/01/25 08:31:28;;;;;;;6.50;3.80;;;4.00;99.90;;;;;;5048859;28;20098;-63
2023/01/25 08:33:56;;;;;;;5.13;4.63;;;4.00;99.90;;;;;;5041310;28;20037;-67
2023/01/25 08:36:23;;;;;;;5.57;3.80;;;4.00;99.90;;;;;;5045787;28;20464;-63
2023/01/25 08:38:56;;;;;;;5.80;3.42;;;4.00;99.90;;;;;;5047153;28;20061;-69
2023/01/25 08:41:24;;;;;;;5.18;3.55;;;4.00;99.90;;;;;;5048295;28;20055;-63
2023/01/25 08:43:52;;;;;;;4.93;4.47;;;4.00;99.90;;;;;;5046499;28;20056;-66
2023/01/25 08:46:20;;;;;;;5.68;4.35;;;4.10;99.90;;;;;;5044450;28;20410;-66
2023/01/25 08:48:47;;;;;;;4.53;4.03;;;4.00;99.90;;;;;;5046333;28;20049;-69
2023/01/25 08:51:15;;;;;;;5.45;4.93;;;4.10;99.90;;;;;;5047093;28;20055;-67
2023/01/25 08:53:42;;;;;;;5.90;4.22;;;4.10;99.90;;;;;;5046831;28;20049;-64
2023/01/25 08:56:12;;;;;;;8.20;5.03;;;4.00;99.90;;;;;;5045604;28;20071;-65
2023/01/25 08:58:41;;;;;;;5.13;4.28;;;4.00;99.90;;;;;;5045336;28;20139;-65
2023/01/25 09:01:10;;;;;;;6.53;4.70;;;4.00;99.90;;;;;;5044362;28;20140;-64
2023/01/25 09:03:42;;;;;;;5.97;4.85;;;4.00;99.90;;;;;;5042484;28;20132;-66
2023/01/25 09:06:10;;;;;;;6.50;4.65;;;4.00;99.90;;;;;;5042526;28;20051;-65
2023/01/25 09:08:38;;;;;;;6.22;4.70;;;4.00;99.90;;;;;;5044961;28;20053;-64
2023/01/25 09:11:07;;;;;;;8.98;5.53;;;4.00;99.90;;;;;;5043903;28;20049;-65
2023/01/25 09:13:34;;;;;;;5.10;4.60;;;4.00;99.90;;;;;;5043466;28;20523;-67
2023/01/25 09:16:03;;;;;;;6.20;5.07;;;4.00;99.90;;;;;;5041198;28;20052;-65
2023/01/25 09:18:31;;;;;;;7.72;5.05;;;4.00;99.90;;;;;;5043361;28;20037;-64
2023/01/25 09:20:59;;;;;;;8.02;6.20;;;4.00;99.90;;;;;;5046248;28;20144;-64
2023/01/25 09:23:26;;;;;;;5.68;5.07;;;4.00;99.90;;;;;;5044912;28;20052;-69
2023/01/25 09:26:00;;;;;;;7.35;5.68;;;4.00;99.90;;;;;;5043071;28;20636;-71
2023/01/25 09:28:31;;;;;;;5.60;5.07;;;4.00;99.90;;;;;;5046246;28;20076;-69
2023/01/25 09:31:01;;;;;;;5.25;4.75;;;4.00;99.90;;;;;;5045900;28;20061;-66
2023/01/25 09:34:05;;;;;;;5.78;4.88;;;4.00;99.90;;;;;;5043642;28;20382;-68
2023/01/25 09:36:32;;;;;;;9.43;5.68;;;4.10;99.90;;;;;;5044992;28;20363;-65
2023/01/25 09:38:59;;;;;;;5.88;4.88;;;4.10;99.90;;;;;;5043843;28;20052;-66
2023/01/25 09:41:44;;;;;;;9.00;4.93;;;4.10;99.90;;;;;;5042076;28;20078;-67
2023/01/25 09:44:28;;;;;;;6.45;5.18;;;4.10;99.90;;;;;;5042238;28;20087;-67
2023/01/25 09:47:03;;;;;;;6.00;4.28;;;4.20;99.90;;;;;;5045151;28;20049;-65
2023/01/25 09:49:49;;;;;;;5.72;4.65;;;4.20;99.90;;;;;;5047259;28;20534;-66
2023/01/25 09:52:22;;;;;;;6.20;5.55;;;4.20;99.90;;;;;;5044228;28;20044;-65
2023/01/25 09:54:49;;;;;;;7.13;5.03;;;4.20;99.90;;;;;;5046661;28;20047;-64
2023/01/25 09:57:36;;;;;;;7.20;4.50;;;4.20;99.90;;;;;;5045511;28;20101;-68
2023/01/25 10:00:19;;;;;;;7.75;5.68;;;4.20;99.90;;;;;;5043065;28;20054;-64
2023/01/25 10:03:05;;;;;;;6.30;4.72;;;4.20;99.90;;;;;;5043045;28;20052;-68
2023/01/25 10:05:39;;;;;;;7.85;4.40;;;4.20;99.90;;;;;;5045269;28;20568;-67
2023/01/25 10:08:11;;;;;;;6.45;3.88;;;4.20;99.90;;;;;;5043235;28;20048;-65
2023/01/25 10:10:41;;;;;;;7.40;4.20;;;4.30;99.90;;;;;;5042888;28;20079;-64
2023/01/25 10:13:12;;;;;;;4.10;3.75;;;4.30;99.90;;;;;;5044260;28;20118;-67
2023/01/25 10:15:45;;;;;;;8.20;4.15;;;4.30;99.90;;;;;;5041878;28;20056;-65
2023/01/25 10:18:24;;;;;;;6.82;3.85;;;4.30;99.90;;;;;;5037871;28;20088;-64
2023/01/25 10:20:56;;;;;;;4.38;3.97;;;4.30;99.90;;;;;;5043769;28;20446;-65
2023/01/25 10:23:27;;;;;;;7.55;4.70;;;4.30;99.90;;;;;;5044670;28;20064;-66
2023/01/25 10:26:11;;;;;;;7.95;4.53;;;4.30;99.90;;;;;;5040820;28;21543;-67
2023/01/25 10:28:51;;;;;;;5.13;3.92;;;4.40;99.90;;;;;;5027643;28;20061;-64
2023/01/25 10:31:27;;;;;;;6.88;4.60;;;4.40;99.90;;;;;;5040500;28;20041;-66
2023/01/25 10:33:55;;;;;;;6.10;4.25;;;4.40;99.90;;;;;;5041660;28;20055;-67
2023/01/25 10:36:28;;;;;;;9.93;3.85;;;4.40;99.90;;;;;;5044901;28;20447;-65
2023/01/25 10:38:59;;;;;;;5.07;3.83;;;4.40;99.90;;;;;;5044802;28;20143;-65
2023/01/25 10:41:39;;;;;;;3.83;3.25;;;4.40;99.90;;;;;;5042291;28;20520;-72
2023/01/25 10:44:23;;;;;;;9.53;3.67;;;4.40;99.90;;;;;;5039640;28;20076;-70
2023/01/25 10:46:59;;;;;;;5.63;3.53;;;4.40;99.90;;;;;;5043484;28;20053;-64
2023/01/25 10:49:32;;;;;;;4.10;3.13;;;4.40;99.90;;;;;;5042173;28;20071;-66
2023/01/25 10:52:13;;;;;;;6.13;4.15;;;4.40;99.90;;;;;;5043390;28;20300;-65
2023/01/25 10:54:40;;;;;;;6.05;3.45;;;4.40;99.90;;;;;;5042138;28;20045;-65
2023/01/25 10:57:11;;;;;;;7.78;4.25;;;4.40;99.90;;;;;;5044762;28;20048;-65
2023/01/25 10:59:38;;;;;;;11.80;4.68;;;4.40;99.90;;;;;;5042924;28;20394;-65
2023/01/25 11:02:46;;;;;;;4.30;3.60;;;4.30;99.90;;;;;;5042192;28;21214;-64
2023/01/25 11:05:27;;;;;;;6.97;3.75;;;4.30;99.90;;;;;;4996405;28;20046;-64
2023/01/25 11:07:55;;;;;;;7.00;5.90;;;4.30;99.90;;;;;;5036345;28;20072;-70
2023/01/25 11:10:35;;;;;;;4.50;3.67;;;4.30;99.90;;;;;;5043583;28;20049;-66
2023/01/25 11:13:14;;;;;;;5.18;4.30;;;4.20;99.90;;;;;;5045350;28;20102;-68
2023/01/25 11:15:50;;;;;;;6.25;4.70;;;4.20;99.90;;;;;;5040803;28;20056;-64
2023/01/25 11:18:28;;;;;;;7.90;4.15;;;4.20;99.90;;;;;;5044729;28;20517;-65
2023/01/25 11:21:15;;;;;;;5.72;4.45;;;4.20;99.90;;;;;;5041035;28;20429;-65
2023/01/25 11:23:42;;;;;;;6.72;4.22;;;4.20;99.90;;;;;;5047483;28;20049;-65
2023/01/25 11:26:17;;;;;;;22.02;5.32;;;4.10;99.90;;;;;;5042910;28;20070;-66
2023/01/25 11:28:47;;;;;;;7.93;5.55;;;4.10;99.90;;;;;;5043968;28;20076;-66
2023/01/25 11:31:19;;;;;;;8.52;4.97;;;4.20;99.90;;;;;;5043131;28;20051;-71
2023/01/25 11:33:46;;;;;;;11.15;5.70;;;4.20;99.90;;;;;;5046012;28;20080;-72
2023/01/25 11:36:37;;;;;;;6.32;4.90;;;4.20;99.90;;;;;;5043946;28;20049;-65
2023/01/25 11:39:20;;;;;;;8.45;5.75;;;4.10;99.90;;;;;;5046631;28;20525;-66
2023/01/25 11:42:07;;;;;;;8.48;5.25;;;4.10;99.90;;;;;;5047032;28;20126;-67
2023/01/25 11:45:01;;;;;;;6.65;4.80;;;4.10;99.90;;;;;;5045132;28;20111;-64
2023/01/25 11:47:37;;;;;;;10.40;6.15;;;4.10;99.90;;;;;;5045838;28;20080;-68
2023/01/25 11:50:09;;;;;;;7.43;5.78;;;4.10;99.90;;;;;;5045175;28;20045;-66
2023/01/25 11:52:51;;;;;;;9.45;5.85;;;4.10;99.90;;;;;;5042382;28;20056;-71
2023/01/25 11:55:25;;;;;;;13.23;8.35;;;4.10;99.90;;;;;;5046638;28;20072;-65
2023/01/25 11:58:38;;;;;;;13.50;7.20;;;4.10;99.90;;;;;;5041695;28;20572;-65
2023/01/25 12:01:35;;;;;;;13.75;7.53;;;4.10;99.90;;;;;;5043100;28;20052;-65
2023/01/25 12:04:16;;;;;;;11.40;7.43;;;4.10;99.90;;;;;;5041147;28;20048;-64
2023/01/25 12:06:43;;;;;;;;;;;4.10;99.90;;;;;;5044152;28;20052;-65
2023/01/25 12:09:19;;;;;;;12.02;9.20;;;4.00;99.90;;;;;;5044248;28;19920;-65
2023/01/25 12:11:59;;;;;;;11.93;7.80;;;4.00;99.90;;;;;;5041253;28;20052;-69
2023/01/25 12:14:59;;;;;;;10.97;7.20;;;4.00;99.90;;;;;;5041730;28;20044;-64
2023/01/25 12:17:45;;;;;;;12.77;7.97;;;4.00;99.90;;;;;;5044161;28;20060;-68
2023/01/25 12:20:31;;;;;;;11.70;8.68;;;4.00;99.90;;;;;;5040380;28;20049;-64
2023/01/25 12:23:08;;;;;;;11.82;8.68;;;4.00;99.90;;;;;;5042283;28;20148;-64
2023/01/25 12:25:35;;;;;;;15.80;8.52;;;4.00;99.90;;;;;;5040241;28;20139;-64
2023/01/25 12:28:12;;;;;;;11.95;7.13;;;4.00;99.90;;;;;;5040456;28;20107;-69
2023/01/25 12:30:51;;;;;;;13.15;8.75;;;3.90;99.90;;;;;;5043684;28;20102;-68
2023/01/25 12:33:33;;;;;;;14.40;9.48;;;4.00;99.90;;;;;;5042709;28;20442;-69
2023/01/25 12:36:13;;;;;;;16.58;7.68;;;3.90;99.90;;;;;;5039669;28;20098;-64
2023/01/25 12:39:03;;;;;;;18.88;7.57;;;3.90;99.90;;;;;;5041297;28;20059;-64
2023/01/25 12:41:39;;;;;;;9.93;7.18;;;3.90;99.90;;;;;;5039149;28;20118;-67
2023/01/25 12:44:22;;;;;;;15.05;8.52;;;3.90;99.90;;;;;;5041226;28;20055;-64
2023/01/25 12:47:28;;;;;;;10.27;7.85;;;3.90;99.90;;;;;;5042770;28;20095;-66
2023/01/25 12:50:05;;;;;;;15.77;9.05;;;3.80;99.90;;;;;;5039846;28;20071;-66
2023/01/25 12:52:33;;;;;;;11.80;9.23;;;3.80;99.90;;;;;;5042087;28;20059;-64
2023/01/25 12:55:02;;;;;;;15.43;8.30;;;3.80;99.90;;;;;;5043235;28;20045;-63
2023/01/25 12:57:45;;;;;;;14.10;8.80;;;3.80;99.90;;;;;;5041984;28;20086;-68
2023/01/25 13:00:18;;;;;;;14.68;8.43;;;3.80;99.90;;;;;;5040618;28;20045;-65
2023/01/25 13:03:00;;;;;;;13.02;8.95;;;3.80;99.90;;;;;;5042331;28;20049;-66
2023/01/25 13:05:36;;;;;;;13.65;8.50;;;3.80;99.90;;;;;;5043438;28;20147;-70
2023/01/25 13:08:23;;;;;;;14.05;9.75;;;3.80;99.90;;;;;;5041436;28;20076;-64
2023/01/25 13:11:19;;;;;;;12.38;9.55;;;3.80;99.90;;;;;;5043341;28;20048;-65
2023/01/25 13:13:46;;;;;;;12.68;8.73;;;3.80;99.90;;;;;;5040134;28;20053;-63
2023/01/25 13:16:28;;;;;;;17.90;8.25;;;3.80;99.90;;;;;;5042864;28;20673;-63
2023/01/25 13:18:58;;;;;;;13.05;8.13;;;3.80;99.90;;;;;;5046838;28;20167;-63
2023/01/25 13:21:40;;;;;;;16.08;10.25;;;3.80;99.90;;;;;;5043076;28;20136;-67